sensor_id;sensor_type;location;lat;lon;timestamp;pressure;altitude;pressure_sealevel;temperature;humidity
49194;BME280;35029;50.804;12.866;2022-10-26T00:01:13;97964.25;;;7.84;96.33
49194;BME280;35029;50.804;12.866;2022-10-26T00:03:41;97968.03;;;7.81;95.85
49194;BME280;35029;50.804;12.866;2022-10-26T00:06:08;97965.38;;;7.89;95.93
49194;BME280;35029;50.804;12.866;2022-10-26T00:08:34;97962.75;;;7.81;94.92
49194;BME280;35029;50.804;12.866;2022-10-26T00:11:00;97954.88;;;7.73;95.07
49194;BME280;35029;50.804;12.866;2022-10-26T00:13:26;97964.06;;;7.85;95.08
49194;BME280;35029;50.804;12.866;2022-10-26T00:15:52;97954.56;;;7.76;95.03
49194;BME280;35029;50.804;12.866;2022-10-26T00:18:17;97959.72;;;7.69;95.21
49194;BME280;35029;50.804;12.866;2022-10-26T00:20:43;97954.88;;;7.73;95.33
49194;BME280;35029;50.804;12.866;2022-10-26T00:23:08;97963.34;;;7.68;95.61
49194;BME280;35029;50.804;12.866;2022-10-26T00:25:34;97960.56;;;7.61;95.26
49194;BME280;35029;50.804;12.866;2022-10-26T00:28:01;97963.72;;;7.57;95.42
49194;BME280;35029;50.804;12.866;2022-10-26T00:30:27;97949.03;;;7.54;95.77
49194;BME280;35029;50.804;12.866;2022-10-26T00:32:52;97951.69;;;7.54;96.12
49194;BME280;35029;50.804;12.866;2022-10-26T00:35:18;97955.44;;;7.60;96.36
49194;BME280;35029;50.804;12.866;2022-10-26T00:37:43;97968.16;;;7.56;95.33
49194;BME280;35029;50.804;12.866;2022-10-26T00:40:09;97950.56;;;7.49;95.87
49194;BME280;35029;50.804;12.866;2022-10-26T00:42:35;97955.00;;;7.48;95.51
49194;BME280;35029;50.804;12.866;2022-10-26T00:45:06;97964.72;;;7.48;94.83
49194;BME280;35029;50.804;12.866;2022-10-26T00:47:41;97963.25;;;7.45;94.59
49194;BME280;35029;50.804;12.866;2022-10-26T00:50:41;97965.22;;;7.43;95.48
49194;BME280;35029;50.804;12.866;2022-10-26T00:53:10;97965.88;;;7.45;95.60
49194;BME280;35029;50.804;12.866;2022-10-26T00:55:37;97957.81;;;7.47;95.79
49194;BME280;35029;50.804;12.866;2022-10-26T00:58:05;97962.94;;;7.40;95.13
49194;BME280;35029;50.804;12.866;2022-10-26T01:00:32;97969.19;;;7.39;96.15
49194;BME280;35029;50.804;12.866;2022-10-26T01:03:03;97953.72;;;7.36;95.46
49194;BME280;35029;50.804;12.866;2022-10-26T01:05:32;97962.94;;;7.40;96.38
49194;BME280;35029;50.804;12.866;2022-10-26T01:07:59;97953.06;;;7.34;95.53
49194;BME280;35029;50.804;12.866;2022-10-26T01:10:26;97957.69;;;7.32;96.22
49194;BME280;35029;50.804;12.866;2022-10-26T01:12:52;97951.94;;;7.28;96.19
49194;BME280;35029;50.804;12.866;2022-10-26T01:15:21;97950.94;;;7.29;96.98
49194;BME280;35029;50.804;12.866;2022-10-26T01:17:56;97941.56;;;7.18;96.08
49194;BME280;35029;50.804;12.866;2022-10-26T01:20:49;97953.25;;;7.24;95.37
49194;BME280;35029;50.804;12.866;2022-10-26T01:29:06;97954.44;;;7.21;95.91
49194;BME280;35029;50.804;12.866;2022-10-26T01:31:40;97950.13;;;7.20;95.97
49194;BME280;35029;50.804;12.866;2022-10-26T01:34:17;97959.19;;;7.26;96.75
49194;BME280;35029;50.804;12.866;2022-10-26T01:36:52;97961.66;;;7.19;95.99
49194;BME280;35029;50.804;12.866;2022-10-26T01:42:10;97947.53;;;7.12;96.99
49194;BME280;35029;50.804;12.866;2022-10-26T01:44:40;97949.16;;;7.13;96.96
49194;BME280;35029;50.804;12.866;2022-10-26T01:47:13;97935.69;;;7.00;96.17
49194;BME280;35029;50.804;12.866;2022-10-26T01:49:41;97949.00;;;7.15;96.59
49194;BME280;35029;50.804;12.866;2022-10-26T01:52:09;97925.44;;;6.97;96.17
49194;BME280;35029;50.804;12.866;2022-10-26T01:54:35;97933.06;;;7.00;96.91
49194;BME280;35029;50.804;12.866;2022-10-26T01:57:06;97917.72;;;6.95;96.49
49194;BME280;35029;50.804;12.866;2022-10-26T02:07:44;97939.63;;;7.04;96.21
49194;BME280;35029;50.804;12.866;2022-10-26T02:11:17;97940.94;;;7.08;95.68
49194;BME280;35029;50.804;12.866;2022-10-26T02:21:46;97929.41;;;7.01;96.17
49194;BME280;35029;50.804;12.866;2022-10-26T02:24:15;97931.75;;;6.96;96.31
49194;BME280;35029;50.804;12.866;2022-10-26T02:26:44;97941.78;;;6.92;96.00
49194;BME280;35029;50.804;12.866;2022-10-26T02:29:15;97931.59;;;6.89;95.60
49194;BME280;35029;50.804;12.866;2022-10-26T02:31:42;97927.97;;;6.90;96.65
49194;BME280;35029;50.804;12.866;2022-10-26T02:34:10;97925.34;;;6.90;97.04
49194;BME280;35029;50.804;12.866;2022-10-26T02:36:41;97931.44;;;6.82;95.97
49194;BME280;35029;50.804;12.866;2022-10-26T02:39:09;97915.63;;;6.74;96.09
49194;BME280;35029;50.804;12.866;2022-10-26T02:41:36;97919.56;;;6.86;96.20
49194;BME280;35029;50.804;12.866;2022-10-26T02:44:28;97926.78;;;6.84;96.06
49194;BME280;35029;50.804;12.866;2022-10-26T02:46:55;97910.81;;;6.77;96.10
49194;BME280;35029;50.804;12.866;2022-10-26T02:49:21;97924.50;;;6.81;96.48
49194;BME280;35029;50.804;12.866;2022-10-26T02:57:25;97917.28;;;6.83;97.27
49194;BME280;35029;50.804;12.866;2022-10-26T02:59:53;97912.47;;;6.79;97.28
49194;BME280;35029;50.804;12.866;2022-10-26T03:02:21;97910.69;;;6.79;96.58
49194;BME280;35029;50.804;12.866;2022-10-26T03:04:48;97919.38;;;6.88;96.15
49194;BME280;35029;50.804;12.866;2022-10-26T03:07:24;97918.59;;;6.87;96.91
49194;BME280;35029;50.804;12.866;2022-10-26T03:09:50;97897.19;;;6.74;95.67
49194;BME280;35029;50.804;12.866;2022-10-26T03:12:15;97910.34;;;6.82;96.30
49194;BME280;35029;50.804;12.866;2022-10-26T03:14:41;97914.63;;;6.83;95.87
49194;BME280;35029;50.804;12.866;2022-10-26T03:17:37;97905.25;;;6.81;96.43
49194;BME280;35029;50.804;12.866;2022-10-26T03:20:03;97901.31;;;6.76;96.58
49194;BME280;35029;50.804;12.866;2022-10-26T03:22:29;97898.34;;;6.71;96.90
49194;BME280;35029;50.804;12.866;2022-10-26T03:24:54;97902.44;;;6.74;97.93
49194;BME280;35029;50.804;12.866;2022-10-26T03:27:20;97900.81;;;6.73;96.71
49194;BME280;35029;50.804;12.866;2022-10-26T03:29:45;97908.19;;;6.69;96.39
49194;BME280;35029;50.804;12.866;2022-10-26T03:32:11;97901.63;;;6.65;96.61
49194;BME280;35029;50.804;12.866;2022-10-26T03:34:36;97891.78;;;6.51;97.13
49194;BME280;35029;50.804;12.866;2022-10-26T03:37:02;97902.47;;;6.57;97.68
49194;BME280;35029;50.804;12.866;2022-10-26T03:39:27;97893.72;;;6.57;98.13
49194;BME280;35029;50.804;12.866;2022-10-26T03:41:53;97907.41;;;6.60;98.37
49194;BME280;35029;50.804;12.866;2022-10-26T03:44:38;97910.03;;;6.60;98.65
49194;BME280;35029;50.804;12.866;2022-10-26T03:47:03;97898.53;;;6.62;99.04
49194;BME280;35029;50.804;12.866;2022-10-26T03:49:28;97880.72;;;6.55;99.60
49194;BME280;35029;50.804;12.866;2022-10-26T03:51:54;97890.44;;;6.71;99.94
49194;BME280;35029;50.804;12.866;2022-10-26T03:54:19;97886.66;;;6.74;98.83
49194;BME280;35029;50.804;12.866;2022-10-26T03:56:45;97889.63;;;6.71;98.86
49194;BME280;35029;50.804;12.866;2022-10-26T03:59:10;97891.56;;;6.77;99.37
49194;BME280;35029;50.804;12.866;2022-10-26T04:01:36;97895.53;;;6.73;99.31
49194;BME280;35029;50.804;12.866;2022-10-26T04:04:01;97908.19;;;6.77;99.40
49194;BME280;35029;50.804;12.866;2022-10-26T04:06:27;97874.13;;;6.68;99.74
49194;BME280;35029;50.804;12.866;2022-10-26T04:08:52;97892.88;;;6.81;99.42
49194;BME280;35029;50.804;12.866;2022-10-26T04:11:23;97895.69;;;6.80;99.55
49194;BME280;35029;50.804;12.866;2022-10-26T04:13:48;97890.25;;;6.73;100.00
49194;BME280;35029;50.804;12.866;2022-10-26T04:16:14;97889.63;;;6.71;100.00
49194;BME280;35029;50.804;12.866;2022-10-26T04:18:39;97886.16;;;6.70;100.00
49194;BME280;35029;50.804;12.866;2022-10-26T04:21:05;97893.22;;;6.78;99.97
49194;BME280;35029;50.804;12.866;2022-10-26T04:23:31;97864.28;;;6.62;100.00
49194;BME280;35029;50.804;12.866;2022-10-26T04:25:56;97895.69;;;6.80;100.00
49194;BME280;35029;50.804;12.866;2022-10-26T04:28:21;97887.81;;;6.71;100.00
49194;BME280;35029;50.804;12.866;2022-10-26T04:30:47;97901.13;;;6.78;100.00
49194;BME280;35029;50.804;12.866;2022-10-26T04:33:49;97892.56;;;6.76;99.52
49194;BME280;35029;50.804;12.866;2022-10-26T04:36:17;97888.44;;;6.65;99.71
49194;BME280;35029;50.804;12.866;2022-10-26T04:38:43;97891.06;;;6.73;100.00
49194;BME280;35029;50.804;12.866;2022-10-26T04:41:08;97897.53;;;6.71;99.47
49194;BME280;35029;50.804;12.866;2022-10-26T04:43:33;97898.16;;;6.73;100.00
49194;BME280;35029;50.804;12.866;2022-10-26T04:45:59;97883.38;;;6.55;99.10
49194;BME280;35029;50.804;12.866;2022-10-26T04:48:24;97892.75;;;6.58;99.46
49194;BME280;35029;50.804;12.866;2022-10-26T04:50:50;97874.50;;;6.48;98.91
49194;BME280;35029;50.804;12.866;2022-10-26T04:53:15;97897.22;;;6.57;99.37
49194;BME280;35029;50.804;12.866;2022-10-26T04:55:41;97900.47;;;6.59;99.62
49194;BME280;35029;50.804;12.866;2022-10-26T04:58:07;97883.72;;;6.52;99.35
49194;BME280;35029;50.804;12.866;2022-10-26T05:00:33;97901.31;;;6.60;99.40
49194;BME280;35029;50.804;12.866;2022-10-26T05:02:59;97905.28;;;6.56;99.91
49194;BME280;35029;50.804;12.866;2022-10-26T05:05:25;97892.09;;;6.56;99.32
49194;BME280;35029;50.804;12.866;2022-10-26T05:07:54;97895.22;;;6.51;99.10
49194;BME280;35029;50.804;12.866;2022-10-26T05:10:21;97893.91;;;6.47;98.81
49194;BME280;35029;50.804;12.866;2022-10-26T05:12:54;97870.72;;;6.34;99.01
49194;BME280;35029;50.804;12.866;2022-10-26T05:15:20;97900.16;;;6.46;99.37
49194;BME280;35029;50.804;12.866;2022-10-26T05:17:46;97893.75;;;6.40;98.92
49194;BME280;35029;50.804;12.866;2022-10-26T05:20:12;97877.59;;;6.35;99.86
49194;BME280;35029;50.804;12.866;2022-10-26T05:22:39;97886.69;;;6.49;100.00
49194;BME280;35029;50.804;12.866;2022-10-26T05:25:05;97888.63;;;6.47;99.49
49194;BME280;35029;50.804;12.866;2022-10-26T05:27:30;97886.34;;;6.52;100.00
49194;BME280;35029;50.804;12.866;2022-10-26T05:29:56;97886.34;;;6.52;100.00
49194;BME280;35029;50.804;12.866;2022-10-26T05:32:21;97882.72;;;6.53;99.87
49194;BME280;35029;50.804;12.866;2022-10-26T05:34:47;97884.03;;;6.57;100.00
49194;BME280;35029;50.804;12.866;2022-10-26T05:37:12;97881.06;;;6.60;99.99
49194;BME280;35029;50.804;12.866;2022-10-26T05:39:38;97858.03;;;6.46;99.67
49194;BME280;35029;50.804;12.866;2022-10-26T05:42:03;97887.47;;;6.66;100.00
49194;BME280;35029;50.804;12.866;2022-10-26T05:44:29;97887.31;;;6.68;99.73
49194;BME280;35029;50.804;12.866;2022-10-26T05:46:54;97891.94;;;6.66;100.00
49194;BME280;35029;50.804;12.866;2022-10-26T05:49:20;97892.25;;;6.71;100.00
49194;BME280;35029;50.804;12.866;2022-10-26T05:51:45;97889.94;;;6.68;100.00
49194;BME280;35029;50.804;12.866;2022-10-26T05:54:11;97885.34;;;6.70;100.00
49194;BME280;35029;50.804;12.866;2022-10-26T05:56:38;97898.00;;;6.74;100.00
49194;BME280;35029;50.804;12.866;2022-10-26T05:59:11;97894.88;;;6.79;100.00
49194;BME280;35029;50.804;12.866;2022-10-26T06:04:32;97904.25;;;6.82;100.00
49194;BME280;35029;50.804;12.866;2022-10-26T06:07:02;97881.06;;;6.69;100.00
49194;BME280;35029;50.804;12.866;2022-10-26T06:09:28;97910.69;;;6.87;100.00
49194;BME280;35029;50.804;12.866;2022-10-26T06:11:54;97893.72;;;6.73;100.00
49194;BME280;35029;50.804;12.866;2022-10-26T06:14:20;97910.84;;;6.86;100.00
49194;BME280;35029;50.804;12.866;2022-10-26T06:30:03;97913.41;;;7.19;100.00
49194;BME280;35029;50.804;12.866;2022-10-26T06:32:29;97910.81;;;7.82;100.00
49194;BME280;35029;50.804;12.866;2022-10-26T06:37:54;97909.13;;;7.89;100.00
49194;BME280;35029;50.804;12.866;2022-10-26T06:40:22;97908.09;;;7.67;100.00
49194;BME280;35029;50.804;12.866;2022-10-26T06:42:48;97903.84;;;7.57;100.00
49194;BME280;35029;50.804;12.866;2022-10-26T06:45:15;97905.00;;;7.55;100.00
49194;BME280;35029;50.804;12.866;2022-10-26T06:47:43;97908.44;;;7.64;100.00
49194;BME280;35029;50.804;12.866;2022-10-26T06:50:24;97916.00;;;7.67;100.00
49194;BME280;35029;50.804;12.866;2022-10-26T06:55:41;97915.16;;;7.74;100.00
49194;BME280;35029;50.804;12.866;2022-10-26T06:58:12;97919.38;;;7.84;100.00
49194;BME280;35029;50.804;12.866;2022-10-26T07:00:39;97913.25;;;7.91;100.00
49194;BME280;35029;50.804;12.866;2022-10-26T07:03:04;97919.00;;;7.95;100.00
49194;BME280;35029;50.804;12.866;2022-10-26T07:05:30;97922.44;;;7.95;100.00
49194;BME280;35029;50.804;12.866;2022-10-26T07:07:55;97924.28;;;7.95;100.00
49194;BME280;35029;50.804;12.866;2022-10-26T07:10:21;97920.13;;;8.01;100.00
49194;BME280;35029;50.804;12.866;2022-10-26T07:12:46;97925.34;;;8.09;100.00
49194;BME280;35029;50.804;12.866;2022-10-26T07:15:12;97925.13;;;8.19;100.00
49194;BME280;35029;50.804;12.866;2022-10-26T07:17:44;97916.94;;;8.28;100.00
49194;BME280;35029;50.804;12.866;2022-10-26T07:20:11;97926.94;;;8.41;100.00
49194;BME280;35029;50.804;12.866;2022-10-26T07:22:37;97924.38;;;8.56;100.00
49194;BME280;35029;50.804;12.866;2022-10-26T07:25:02;97923.28;;;8.66;100.00
49194;BME280;35029;50.804;12.866;2022-10-26T07:27:28;97921.03;;;8.77;100.00
49194;BME280;35029;50.804;12.866;2022-10-26T07:29:53;97923.25;;;8.89;100.00
49194;BME280;35029;50.804;12.866;2022-10-26T07:32:19;97898.91;;;8.78;100.00
49194;BME280;35029;50.804;12.866;2022-10-26T07:34:44;97913.72;;;9.03;100.00
49194;BME280;35029;50.804;12.866;2022-10-26T07:37:10;97913.44;;;9.12;100.00
49194;BME280;35029;50.804;12.866;2022-10-26T07:39:35;97913.34;;;9.21;100.00
49194;BME280;35029;50.804;12.866;2022-10-26T07:42:00;97910.44;;;9.30;100.00
49194;BME280;35029;50.804;12.866;2022-10-26T07:44:26;97913.25;;;9.44;100.00
49194;BME280;35029;50.804;12.866;2022-10-26T07:46:52;97915.41;;;9.55;100.00
49194;BME280;35029;50.804;12.866;2022-10-26T07:49:18;97903.53;;;9.66;100.00
49194;BME280;35029;50.804;12.866;2022-10-26T07:51:43;97902.44;;;9.75;100.00
49194;BME280;35029;50.804;12.866;2022-10-26T07:54:09;97907.97;;;9.95;100.00
49194;BME280;35029;50.804;12.866;2022-10-26T07:56:34;97921.50;;;10.07;100.00
49194;BME280;35029;50.804;12.866;2022-10-26T07:59:00;97923.69;;;10.19;100.00
49194;BME280;35029;50.804;12.866;2022-10-26T08:01:25;97927.94;;;10.35;100.00
49194;BME280;35029;50.804;12.866;2022-10-26T08:03:52;97925.28;;;10.56;100.00
49194;BME280;35029;50.804;12.866;2022-10-26T08:06:18;97923.81;;;10.75;100.00
49194;BME280;35029;50.804;12.866;2022-10-26T08:08:44;97925.84;;;11.02;100.00
49194;BME280;35029;50.804;12.866;2022-10-26T08:11:11;97911.84;;;11.14;100.00
49194;BME280;35029;50.804;12.866;2022-10-26T08:13:37;97926.13;;;11.48;100.00
49194;BME280;35029;50.804;12.866;2022-10-26T08:16:04;97919.06;;;11.69;100.00
49194;BME280;35029;50.804;12.866;2022-10-26T08:18:29;97923.19;;;11.78;100.00
49194;BME280;35029;50.804;12.866;2022-10-26T08:21:01;97925.75;;;12.00;100.00
49194;BME280;35029;50.804;12.866;2022-10-26T08:23:27;97924.94;;;12.13;100.00
49194;BME280;35029;50.804;12.866;2022-10-26T08:25:58;97913.09;;;12.15;100.00
49194;BME280;35029;50.804;12.866;2022-10-26T08:28:24;97929.69;;;12.38;100.00
49194;BME280;35029;50.804;12.866;2022-10-26T08:30:50;97912.13;;;12.37;100.00
49194;BME280;35029;50.804;12.866;2022-10-26T08:33:15;97932.59;;;12.63;100.00
49194;BME280;35029;50.804;12.866;2022-10-26T08:35:41;97928.72;;;12.79;100.00
49194;BME280;35029;50.804;12.866;2022-10-26T08:38:06;97926.88;;;12.79;100.00
49194;BME280;35029;50.804;12.866;2022-10-26T08:40:37;97934.66;;;12.74;100.00
49194;BME280;35029;50.804;12.866;2022-10-26T08:43:15;97930.97;;;12.68;100.00
49194;BME280;35029;50.804;12.866;2022-10-26T08:45:51;97924.00;;;12.67;100.00
49194;BME280;35029;50.804;12.866;2022-10-26T08:48:21;97936.09;;;12.77;100.00
49194;BME280;35029;50.804;12.866;2022-10-26T08:50:50;97922.56;;;12.78;100.00
49194;BME280;35029;50.804;12.866;2022-10-26T08:56:16;97927.25;;;12.90;100.00
49194;BME280;35029;50.804;12.866;2022-10-26T08:58:47;97924.22;;;12.93;100.00
49194;BME280;35029;50.804;12.866;2022-10-26T09:01:16;97932.38;;;13.05;100.00
49194;BME280;35029;50.804;12.866;2022-10-26T09:03:42;97925.00;;;13.13;100.00
49194;BME280;35029;50.804;12.866;2022-10-26T09:06:25;97932.13;;;13.26;100.00
49194;BME280;35029;50.804;12.866;2022-10-26T09:09:02;97917.81;;;13.27;100.00
49194;BME280;35029;50.804;12.866;2022-10-26T09:11:46;97929.06;;;13.43;100.00
49194;BME280;35029;50.804;12.866;2022-10-26T09:23:28;97921.50;;;13.92;93.31
49194;BME280;35029;50.804;12.866;2022-10-26T09:25:59;97930.06;;;14.07;91.56
49194;BME280;35029;50.804;12.866;2022-10-26T09:28:27;97932.25;;;14.17;90.60
49194;BME280;35029;50.804;12.866;2022-10-26T09:30:57;97929.34;;;14.25;89.71
49194;BME280;35029;50.804;12.866;2022-10-26T09:33:24;97929.84;;;14.41;87.83
49194;BME280;35029;50.804;12.866;2022-10-26T09:36:09;97941.72;;;14.45;86.92
49194;BME280;35029;50.804;12.866;2022-10-26T09:38:39;97950.25;;;14.60;84.62
49194;BME280;35029;50.804;12.866;2022-10-26T09:43:51;97951.09;;;14.86;81.97
49194;BME280;35029;50.804;12.866;2022-10-26T09:49:10;97950.00;;;14.94;81.31
49194;BME280;35029;50.804;12.866;2022-10-26T09:51:38;97951.59;;;15.01;82.03
49194;BME280;35029;50.804;12.866;2022-10-26T09:54:14;97955.22;;;15.07;79.60
49194;BME280;35029;50.804;12.866;2022-10-26T09:56:40;97942.97;;;14.99;79.62
49194;BME280;35029;50.804;12.866;2022-10-26T09:59:06;97954.44;;;15.07;80.96
49194;BME280;35029;50.804;12.866;2022-10-26T10:01:35;97958.69;;;14.89;81.59
49194;BME280;35029;50.804;12.866;2022-10-26T10:07:33;97968.78;;;14.80;81.89
49194;BME280;35029;50.804;12.866;2022-10-26T10:09:40;97961.63;;;14.81;82.20
49194;BME280;35029;50.804;12.866;2022-10-26T10:12:18;97965.47;;;14.85;81.49
49194;BME280;35029;50.804;12.866;2022-10-26T10:14:55;97967.31;;;14.84;80.89
49194;BME280;35029;50.804;12.866;2022-10-26T10:17:22;97972.28;;;14.81;82.23
49194;BME280;35029;50.804;12.866;2022-10-26T10:19:48;97964.91;;;14.76;81.88
49194;BME280;35029;50.804;12.866;2022-10-26T10:24:41;97963.84;;;14.84;81.64
49194;BME280;35029;50.804;12.866;2022-10-26T10:29:48;97974.25;;;14.92;81.25
49194;BME280;35029;50.804;12.866;2022-10-26T10:32:18;97973.22;;;14.93;81.41
49194;BME280;35029;50.804;12.866;2022-10-26T10:34:48;97966.41;;;14.97;81.84
49194;BME280;35029;50.804;12.866;2022-10-26T10:37:40;97964.16;;;14.94;82.35
49194;BME280;35029;50.804;12.866;2022-10-26T10:40:13;97971.81;;;14.91;81.97
49194;BME280;35029;50.804;12.866;2022-10-26T10:42:42;97972.44;;;14.86;82.79
49194;BME280;35029;50.804;12.866;2022-10-26T10:45:19;97973.84;;;14.88;83.12
49194;BME280;35029;50.804;12.866;2022-10-26T10:48:04;97966.94;;;14.81;83.03
49194;BME280;35029;50.804;12.866;2022-10-26T10:50:50;97979.19;;;14.88;83.35
49194;BME280;35029;50.804;12.866;2022-10-26T10:53:20;97974.16;;;15.06;81.67
49194;BME280;35029;50.804;12.866;2022-10-26T11:01:38;97986.50;;;15.25;81.65
49194;BME280;35029;50.804;12.866;2022-10-26T11:06:53;97977.06;;;15.23;81.31
49194;BME280;35029;50.804;12.866;2022-10-26T11:09:26;97983.25;;;15.23;81.50
49194;BME280;35029;50.804;12.866;2022-10-26T11:12:00;97970.31;;;15.20;81.87
49194;BME280;35029;50.804;12.866;2022-10-26T11:14:27;97978.13;;;15.21;81.44
49194;BME280;35029;50.804;12.866;2022-10-26T11:19:33;97982.03;;;15.19;81.29
49194;BME280;35029;50.804;12.866;2022-10-26T11:22:03;97984.25;;;15.22;82.17
49194;BME280;35029;50.804;12.866;2022-10-26T11:24:38;97977.13;;;15.16;82.87
49194;BME280;35029;50.804;12.866;2022-10-26T11:27:15;97964.03;;;15.08;81.74
49194;BME280;35029;50.804;12.866;2022-10-26T11:35:31;97977.78;;;15.11;83.09
49194;BME280;35029;50.804;12.866;2022-10-26T11:38:11;97971.38;;;15.19;82.71
49194;BME280;35029;50.804;12.866;2022-10-26T11:40:46;97976.31;;;15.15;82.90
49194;BME280;35029;50.804;12.866;2022-10-26T11:46:23;97969.88;;;15.23;82.44
49194;BME280;35029;50.804;12.866;2022-10-26T11:48:57;97976.03;;;15.24;82.04
49194;BME280;35029;50.804;12.866;2022-10-26T11:53:54;97972.28;;;15.31;81.10
49194;BME280;35029;50.804;12.866;2022-10-26T11:56:31;97970.72;;;15.42;81.10
49194;BME280;35029;50.804;12.866;2022-10-26T11:58:57;97976.28;;;15.41;79.12
49194;BME280;35029;50.804;12.866;2022-10-26T12:01:24;97973.34;;;15.49;79.71
49194;BME280;35029;50.804;12.866;2022-10-26T12:03:53;97980.75;;;15.47;78.68
49194;BME280;35029;50.804;12.866;2022-10-26T12:06:25;97973.75;;;15.46;80.19
49194;BME280;35029;50.804;12.866;2022-10-26T12:09:00;97977.03;;;15.48;80.59
49194;BME280;35029;50.804;12.866;2022-10-26T12:11:43;97976.53;;;15.58;79.74
49194;BME280;35029;50.804;12.866;2022-10-26T12:14:23;97972.97;;;15.64;78.36
49194;BME280;35029;50.804;12.866;2022-10-26T12:17:04;97973.56;;;15.66;79.20
49194;BME280;35029;50.804;12.866;2022-10-26T12:22:12;97967.34;;;15.72;79.47
49194;BME280;35029;50.804;12.866;2022-10-26T12:24:46;97969.31;;;15.77;80.45
49194;BME280;35029;50.804;12.866;2022-10-26T12:27:48;97967.06;;;15.80;80.25
49194;BME280;35029;50.804;12.866;2022-10-26T12:37:53;97970.38;;;15.94;78.58
49194;BME280;35029;50.804;12.866;2022-10-26T12:48:38;97979.28;;;15.88;77.25
49194;BME280;35029;50.804;12.866;2022-10-26T12:56:54;97978.03;;;15.91;76.89
49194;BME280;35029;50.804;12.866;2022-10-26T13:07:20;97987.13;;;15.64;78.68
49194;BME280;35029;50.804;12.866;2022-10-26T13:09:57;97994.19;;;15.59;80.19
49194;BME280;35029;50.804;12.866;2022-10-26T13:12:25;97987.13;;;15.46;80.46
49194;BME280;35029;50.804;12.866;2022-10-26T13:15:02;97995.56;;;15.43;81.69
49194;BME280;35029;50.804;12.866;2022-10-26T13:17:30;98005.28;;;15.37;82.10
49194;BME280;35029;50.804;12.866;2022-10-26T13:19:59;98000.59;;;15.32;85.13
49194;BME280;35029;50.804;12.866;2022-10-26T13:22:25;97991.88;;;15.18;85.77
49194;BME280;35029;50.804;12.866;2022-10-26T13:24:54;97987.28;;;15.07;86.83
49194;BME280;35029;50.804;12.866;2022-10-26T13:27:56;97992.06;;;14.98;87.11
49194;BME280;35029;50.804;12.866;2022-10-26T13:30:44;97987.81;;;14.91;88.71
49194;BME280;35029;50.804;12.866;2022-10-26T13:33:18;97990.09;;;14.87;89.31
49194;BME280;35029;50.804;12.866;2022-10-26T13:35:45;97997.28;;;14.86;89.63
49194;BME280;35029;50.804;12.866;2022-10-26T13:38:12;97987.84;;;14.84;89.28
49194;BME280;35029;50.804;12.866;2022-10-26T13:40:42;97991.50;;;14.90;88.32
49194;BME280;35029;50.804;12.866;2022-10-26T13:43:17;97987.38;;;14.94;88.82
49194;BME280;35029;50.804;12.866;2022-10-26T13:45:52;97987.75;;;14.97;88.77
49194;BME280;35029;50.804;12.866;2022-10-26T13:48:36;97978.50;;;15.00;88.56
49194;BME280;35029;50.804;12.866;2022-10-26T13:51:09;97988.69;;;15.10;88.65
49194;BME280;35029;50.804;12.866;2022-10-26T13:56:32;97997.22;;;15.18;88.47
49194;BME280;35029;50.804;12.866;2022-10-26T13:59:02;98005.63;;;15.22;87.36
49194;BME280;35029;50.804;12.866;2022-10-26T14:01:30;98000.69;;;15.26;87.59
49194;BME280;35029;50.804;12.866;2022-10-26T14:03:56;97984.94;;;15.17;88.10
49194;BME280;35029;50.804;12.866;2022-10-26T14:06:31;98002.22;;;15.33;87.93
49194;BME280;35029;50.804;12.866;2022-10-26T14:09:04;97997.56;;;15.29;87.38
49194;BME280;35029;50.804;12.866;2022-10-26T14:11:44;98004.69;;;15.35;86.92
49194;BME280;35029;50.804;12.866;2022-10-26T14:14:16;98004.78;;;15.47;86.67
49194;BME280;35029;50.804;12.866;2022-10-26T14:16:44;97998.75;;;15.33;87.21
49194;BME280;35029;50.804;12.866;2022-10-26T14:19:23;98000.44;;;15.27;86.56
49194;BME280;35029;50.804;12.866;2022-10-26T14:21:49;98001.47;;;15.26;87.14
49194;BME280;35029;50.804;12.866;2022-10-26T14:24:29;98019.91;;;15.34;87.31
49194;BME280;35029;50.804;12.866;2022-10-26T14:26:56;98016.63;;;15.32;88.09
49194;BME280;35029;50.804;12.866;2022-10-26T14:29:23;98022.97;;;15.38;88.84
49194;BME280;35029;50.804;12.866;2022-10-26T14:31:50;98021.53;;;15.35;88.79
49194;BME280;35029;50.804;12.866;2022-10-26T14:34:17;98028.13;;;15.33;89.23
49194;BME280;35029;50.804;12.866;2022-10-26T14:36:50;98021.38;;;15.30;89.22
49194;BME280;35029;50.804;12.866;2022-10-26T14:39:32;98024.03;;;15.30;89.33
49194;BME280;35029;50.804;12.866;2022-10-26T14:42:00;98028.50;;;15.36;89.30
49194;BME280;35029;50.804;12.866;2022-10-26T14:44:28;98011.59;;;15.43;88.15
49194;BME280;35029;50.804;12.866;2022-10-26T14:46:54;98020.06;;;15.58;87.80
49194;BME280;35029;50.804;12.866;2022-10-26T14:49:23;98022.47;;;15.66;87.76
49194;BME280;35029;50.804;12.866;2022-10-26T14:51:56;98024.94;;;15.68;87.40
49194;BME280;35029;50.804;12.866;2022-10-26T14:54:25;98003.81;;;15.60;87.46
49194;BME280;35029;50.804;12.866;2022-10-26T14:56:51;98023.28;;;15.67;86.92
49194;BME280;35029;50.804;12.866;2022-10-26T15:04:39;98042.88;;;15.61;84.72
49194;BME280;35029;50.804;12.866;2022-10-26T15:07:18;98039.56;;;15.65;83.97
49194;BME280;35029;50.804;12.866;2022-10-26T15:09:46;98041.78;;;15.68;84.08
49194;BME280;35029;50.804;12.866;2022-10-26T15:12:26;98051.84;;;15.48;85.31
49194;BME280;35029;50.804;12.866;2022-10-26T15:14:52;98035.47;;;15.37;84.67
49194;BME280;35029;50.804;12.866;2022-10-26T15:17:24;98040.25;;;15.35;86.14
49194;BME280;35029;50.804;12.866;2022-10-26T15:19:56;98023.56;;;15.15;87.04
49194;BME280;35029;50.804;12.866;2022-10-26T15:22:26;98048.34;;;15.22;87.48
49194;BME280;35029;50.804;12.866;2022-10-26T15:24:55;98053.06;;;15.20;87.45
49194;BME280;35029;50.804;12.866;2022-10-26T15:27:23;98050.03;;;15.16;88.05